sensor_id;sensor_type;location;lat;lon;timestamp;temperature;humidity
57282;DHT22;43129;52.628;10.098;2023-08-30T00:00:56;14.80;99.90
57282;DHT22;43129;52.628;10.098;2023-08-30T00:03:24;14.70;99.90
57282;DHT22;43129;52.628;10.098;2023-08-30T00:05:49;14.70;99.90
57282;DHT22;43129;52.628;10.098;2023-08-30T00:08:15;14.60;99.90
57282;DHT22;43129;52.628;10.098;2023-08-30T00:10:45;14.60;99.90
57282;DHT22;43129;52.628;10.098;2023-08-30T00:13:11;14.50;99.90
57282;DHT22;43129;52.628;10.098;2023-08-30T00:15:38;14.50;99.90
57282;DHT22;43129;52.628;10.098;2023-08-30T00:18:04;14.40;99.90
57282;DHT22;43129;52.628;10.098;2023-08-30T00:20:30;14.40;99.90
57282;DHT22;43129;52.628;10.098;2023-08-30T00:22:55;14.30;99.90
57282;DHT22;43129;52.628;10.098;2023-08-30T00:25:21;14.30;99.90
57282;DHT22;43129;52.628;10.098;2023-08-30T00:27:49;14.30;99.90
57282;DHT22;43129;52.628;10.098;2023-08-30T00:30:15;14.20;99.90
57282;DHT22;43129;52.628;10.098;2023-08-30T00:32:42;14.10;99.90
57282;DHT22;43129;52.628;10.098;2023-08-30T00:35:12;14.10;99.90
57282;DHT22;43129;52.628;10.098;2023-08-30T00:37:40;14.20;99.90
57282;DHT22;43129;52.628;10.098;2023-08-30T00:40:08;14.10;99.90
57282;DHT22;43129;52.628;10.098;2023-08-30T00:42:37;14.00;99.90
57282;DHT22;43129;52.628;10.098;2023-08-30T00:45:03;14.10;99.90
57282;DHT22;43129;52.628;10.098;2023-08-30T00:47:29;14.10;99.90
57282;DHT22;43129;52.628;10.098;2023-08-30T00:49:55;14.10;99.90
57282;DHT22;43129;52.628;10.098;2023-08-30T00:52:21;14.00;99.90
57282;DHT22;43129;52.628;10.098;2023-08-30T00:54:46;13.90;99.90
57282;DHT22;43129;52.628;10.098;2023-08-30T00:57:14;13.90;99.90
57282;DHT22;43129;52.628;10.098;2023-08-30T00:59:43;14.00;99.90
57282;DHT22;43129;52.628;10.098;2023-08-30T01:02:12;14.10;99.90
57282;DHT22;43129;52.628;10.098;2023-08-30T01:04:37;14.10;99.90
57282;DHT22;43129;52.628;10.098;2023-08-30T01:07:05;14.10;99.90
57282;DHT22;43129;52.628;10.098;2023-08-30T01:09:33;14.00;99.90
57282;DHT22;43129;52.628;10.098;2023-08-30T01:12:05;14.10;99.90
57282;DHT22;43129;52.628;10.098;2023-08-30T01:17:19;14.00;99.90
57282;DHT22;43129;52.628;10.098;2023-08-30T01:27:34;13.80;99.90
57282;DHT22;43129;52.628;10.098;2023-08-30T01:30:01;13.70;99.90
57282;DHT22;43129;52.628;10.098;2023-08-30T01:32:28;13.60;99.90
57282;DHT22;43129;52.628;10.098;2023-08-30T01:34:55;13.50;99.90
57282;DHT22;43129;52.628;10.098;2023-08-30T01:37:24;13.50;99.90
57282;DHT22;43129;52.628;10.098;2023-08-30T01:39:52;13.40;99.90
57282;DHT22;43129;52.628;10.098;2023-08-30T01:42:18;13.30;99.90
57282;DHT22;43129;52.628;10.098;2023-08-30T01:44:49;13.30;99.90
57282;DHT22;43129;52.628;10.098;2023-08-30T01:47:18;13.20;99.90
57282;DHT22;43129;52.628;10.098;2023-08-30T01:49:45;13.30;99.90
57282;DHT22;43129;52.628;10.098;2023-08-30T01:52:11;13.20;99.90
57282;DHT22;43129;52.628;10.098;2023-08-30T01:54:37;13.20;99.90
57282;DHT22;43129;52.628;10.098;2023-08-30T01:57:08;13.10;99.90
57282;DHT22;43129;52.628;10.098;2023-08-30T01:59:34;13.10;99.90
57282;DHT22;43129;52.628;10.098;2023-08-30T02:02:00;13.10;99.90
57282;DHT22;43129;52.628;10.098;2023-08-30T02:04:25;13.10;99.90
57282;DHT22;43129;52.628;10.098;2023-08-30T02:07:05;13.10;99.90
57282;DHT22;43129;52.628;10.098;2023-08-30T02:09:40;13.10;99.90
57282;DHT22;43129;52.628;10.098;2023-08-30T02:12:13;13.20;99.90
57282;DHT22;43129;52.628;10.098;2023-08-30T02:14:42;13.10;99.90
57282;DHT22;43129;52.628;10.098;2023-08-30T02:17:10;13.10;99.90
57282;DHT22;43129;52.628;10.098;2023-08-30T02:19:37;13.00;99.90
57282;DHT22;43129;52.628;10.098;2023-08-30T02:22:05;13.00;99.90
57282;DHT22;43129;52.628;10.098;2023-08-30T02:24:31;12.90;99.90
57282;DHT22;43129;52.628;10.098;2023-08-30T02:26:59;12.80;99.90
57282;DHT22;43129;52.628;10.098;2023-08-30T02:29:27;12.80;99.90
57282;DHT22;43129;52.628;10.098;2023-08-30T02:31:52;12.70;99.90
57282;DHT22;43129;52.628;10.098;2023-08-30T02:34:20;12.70;99.90
57282;DHT22;43129;52.628;10.098;2023-08-30T02:36:46;12.50;99.90
57282;DHT22;43129;52.628;10.098;2023-08-30T02:39:14;12.50;99.90
57282;DHT22;43129;52.628;10.098;2023-08-30T02:41:42;12.50;99.90
57282;DHT22;43129;52.628;10.098;2023-08-30T02:44:13;12.40;99.90
57282;DHT22;43129;52.628;10.098;2023-08-30T02:46:39;12.30;99.90
57282;DHT22;43129;52.628;10.098;2023-08-30T02:49:05;12.20;99.90
57282;DHT22;43129;52.628;10.098;2023-08-30T02:51:33;12.10;99.90
57282;DHT22;43129;52.628;10.098;2023-08-30T02:53:59;12.20;99.90
57282;DHT22;43129;52.628;10.098;2023-08-30T02:56:24;12.20;99.90
57282;DHT22;43129;52.628;10.098;2023-08-30T02:58:50;12.10;99.90
57282;DHT22;43129;52.628;10.098;2023-08-30T03:01:16;12.10;99.90
57282;DHT22;43129;52.628;10.098;2023-08-30T03:03:42;12.00;99.90
57282;DHT22;43129;52.628;10.098;2023-08-30T03:06:07;12.10;99.90
57282;DHT22;43129;52.628;10.098;2023-08-30T03:08:35;12.10;99.90
57282;DHT22;43129;52.628;10.098;2023-08-30T03:11:11;12.30;99.90
57282;DHT22;43129;52.628;10.098;2023-08-30T03:13:37;12.20;99.90
57282;DHT22;43129;52.628;10.098;2023-08-30T03:16:16;12.30;99.90
57282;DHT22;43129;52.628;10.098;2023-08-30T03:18:42;12.20;99.90
57282;DHT22;43129;52.628;10.098;2023-08-30T03:21:08;12.10;99.90
57282;DHT22;43129;52.628;10.098;2023-08-30T03:23:35;12.20;99.90
57282;DHT22;43129;52.628;10.098;2023-08-30T03:26:23;12.10;99.90
57282;DHT22;43129;52.628;10.098;2023-08-30T03:28:49;12.10;99.90
57282;DHT22;43129;52.628;10.098;2023-08-30T03:31:21;12.00;99.90
57282;DHT22;43129;52.628;10.098;2023-08-30T03:33:47;12.00;99.90
57282;DHT22;43129;52.628;10.098;2023-08-30T03:36:18;12.00;99.90
57282;DHT22;43129;52.628;10.098;2023-08-30T03:38:44;12.00;99.90
57282;DHT22;43129;52.628;10.098;2023-08-30T03:41:10;12.00;99.90
57282;DHT22;43129;52.628;10.098;2023-08-30T03:43:38;11.90;99.90
57282;DHT22;43129;52.628;10.098;2023-08-30T03:46:09;11.70;99.90
57282;DHT22;43129;52.628;10.098;2023-08-30T03:48:37;11.80;99.90
57282;DHT22;43129;52.628;10.098;2023-08-30T03:51:02;11.70;99.90
57282;DHT22;43129;52.628;10.098;2023-08-30T03:53:31;11.70;99.90
57282;DHT22;43129;52.628;10.098;2023-08-30T03:55:56;11.50;99.90
57282;DHT22;43129;52.628;10.098;2023-08-30T03:58:23;11.50;99.90
57282;DHT22;43129;52.628;10.098;2023-08-30T04:00:48;11.40;99.90
57282;DHT22;43129;52.628;10.098;2023-08-30T04:03:15;11.40;99.90
57282;DHT22;43129;52.628;10.098;2023-08-30T04:05:41;11.30;99.90
57282;DHT22;43129;52.628;10.098;2023-08-30T04:08:07;11.40;99.90
57282;DHT22;43129;52.628;10.098;2023-08-30T04:10:40;11.40;99.90
57282;DHT22;43129;52.628;10.098;2023-08-30T04:13:06;11.30;99.90
57282;DHT22;43129;52.628;10.098;2023-08-30T04:15:33;11.30;99.90
57282;DHT22;43129;52.628;10.098;2023-08-30T04:17:59;11.20;99.90
57282;DHT22;43129;52.628;10.098;2023-08-30T04:20:25;11.10;99.90
57282;DHT22;43129;52.628;10.098;2023-08-30T04:22:53;11.10;99.90
57282;DHT22;43129;52.628;10.098;2023-08-30T04:25:20;11.00;99.90
57282;DHT22;43129;52.628;10.098;2023-08-30T04:27:48;10.90;99.90
57282;DHT22;43129;52.628;10.098;2023-08-30T04:30:15;10.90;99.90
57282;DHT22;43129;52.628;10.098;2023-08-30T04:32:41;10.90;99.90
57282;DHT22;43129;52.628;10.098;2023-08-30T04:35:08;10.90;99.90
57282;DHT22;43129;52.628;10.098;2023-08-30T04:37:36;11.00;99.90
57282;DHT22;43129;52.628;10.098;2023-08-30T04:40:04;11.00;99.90
57282;DHT22;43129;52.628;10.098;2023-08-30T04:42:29;11.20;99.90
57282;DHT22;43129;52.628;10.098;2023-08-30T04:44:55;11.30;99.90
57282;DHT22;43129;52.628;10.098;2023-08-30T04:47:23;11.30;99.90
57282;DHT22;43129;52.628;10.098;2023-08-30T04:49:54;11.30;99.90
57282;DHT22;43129;52.628;10.098;2023-08-30T04:52:20;11.30;99.90
57282;DHT22;43129;52.628;10.098;2023-08-30T04:54:45;11.40;99.90
57282;DHT22;43129;52.628;10.098;2023-08-30T04:57:14;11.50;99.90
57282;DHT22;43129;52.628;10.098;2023-08-30T04:59:44;11.60;99.90
57282;DHT22;43129;52.628;10.098;2023-08-30T05:02:10;11.70;99.90
57282;DHT22;43129;52.628;10.098;2023-08-30T05:04:38;11.60;99.90
57282;DHT22;43129;52.628;10.098;2023-08-30T05:07:04;11.60;99.90
57282;DHT22;43129;52.628;10.098;2023-08-30T05:09:30;11.70;99.90
57282;DHT22;43129;52.628;10.098;2023-08-30T05:11:56;11.80;99.90
57282;DHT22;43129;52.628;10.098;2023-08-30T05:14:21;12.00;99.90
57282;DHT22;43129;52.628;10.098;2023-08-30T05:16:50;12.10;99.90
57282;DHT22;43129;52.628;10.098;2023-08-30T05:19:18;12.20;99.90
57282;DHT22;43129;52.628;10.098;2023-08-30T05:21:43;12.40;99.90
57282;DHT22;43129;52.628;10.098;2023-08-30T05:24:09;12.40;99.90
57282;DHT22;43129;52.628;10.098;2023-08-30T05:26:38;12.50;99.90
57282;DHT22;43129;52.628;10.098;2023-08-30T05:29:04;12.60;99.90
57282;DHT22;43129;52.628;10.098;2023-08-30T05:31:29;12.60;99.90
57282;DHT22;43129;52.628;10.098;2023-08-30T05:33:58;12.70;99.90
57282;DHT22;43129;52.628;10.098;2023-08-30T05:36:23;12.70;99.90
57282;DHT22;43129;52.628;10.098;2023-08-30T05:38:49;12.80;99.90
57282;DHT22;43129;52.628;10.098;2023-08-30T05:41:14;12.70;99.90
57282;DHT22;43129;52.628;10.098;2023-08-30T05:43:42;12.80;99.90
57282;DHT22;43129;52.628;10.098;2023-08-30T05:46:10;12.70;99.90
57282;DHT22;43129;52.628;10.098;2023-08-30T05:48:40;12.80;99.90
57282;DHT22;43129;52.628;10.098;2023-08-30T05:51:08;12.80;99.90
57282;DHT22;43129;52.628;10.098;2023-08-30T05:53:34;12.90;99.90
57282;DHT22;43129;52.628;10.098;2023-08-30T05:55:59;13.10;99.90
57282;DHT22;43129;52.628;10.098;2023-08-30T05:58:28;13.20;99.90
57282;DHT22;43129;52.628;10.098;2023-08-30T06:00:54;13.30;99.90
57282;DHT22;43129;52.628;10.098;2023-08-30T06:03:20;13.40;99.90
57282;DHT22;43129;52.628;10.098;2023-08-30T06:05:46;13.40;99.90
57282;DHT22;43129;52.628;10.098;2023-08-30T06:08:16;13.60;99.90
57282;DHT22;43129;52.628;10.098;2023-08-30T06:10:45;13.60;99.90
57282;DHT22;43129;52.628;10.098;2023-08-30T06:13:16;13.70;99.90
57282;DHT22;43129;52.628;10.098;2023-08-30T06:15:41;13.90;99.90
57282;DHT22;43129;52.628;10.098;2023-08-30T06:18:13;14.00;99.90
57282;DHT22;43129;52.628;10.098;2023-08-30T06:20:41;14.10;99.90
57282;DHT22;43129;52.628;10.098;2023-08-30T06:23:09;14.20;99.90
57282;DHT22;43129;52.628;10.098;2023-08-30T06:25:35;14.30;99.90
57282;DHT22;43129;52.628;10.098;2023-08-30T06:28:03;14.40;99.90
57282;DHT22;43129;52.628;10.098;2023-08-30T06:30:29;14.60;99.90
57282;DHT22;43129;52.628;10.098;2023-08-30T06:32:56;14.60;99.90
57282;DHT22;43129;52.628;10.098;2023-08-30T06:35:22;14.90;99.90
57282;DHT22;43129;52.628;10.098;2023-08-30T06:37:48;14.90;99.90
57282;DHT22;43129;52.628;10.098;2023-08-30T06:40:13;15.00;99.90
57282;DHT22;43129;52.628;10.098;2023-08-30T06:42:39;15.20;99.90
57282;DHT22;43129;52.628;10.098;2023-08-30T06:45:05;15.30;99.90
57282;DHT22;43129;52.628;10.098;2023-08-30T06:47:36;15.50;99.90
57282;DHT22;43129;52.628;10.098;2023-08-30T06:50:01;15.50;99.90
57282;DHT22;43129;52.628;10.098;2023-08-30T06:52:29;15.80;99.90
57282;DHT22;43129;52.628;10.098;2023-08-30T06:54:57;15.90;99.90
57282;DHT22;43129;52.628;10.098;2023-08-30T06:57:23;15.90;99.90
57282;DHT22;43129;52.628;10.098;2023-08-30T06:59:50;16.10;99.90
57282;DHT22;43129;52.628;10.098;2023-08-30T07:02:16;16.30;99.90
57282;DHT22;43129;52.628;10.098;2023-08-30T07:04:44;16.40;99.90
57282;DHT22;43129;52.628;10.098;2023-08-30T07:07:12;16.70;99.90
57282;DHT22;43129;52.628;10.098;2023-08-30T07:09:43;16.80;99.90
57282;DHT22;43129;52.628;10.098;2023-08-30T07:12:11;16.90;99.90
57282;DHT22;43129;52.628;10.098;2023-08-30T07:14:36;17.30;99.90
57282;DHT22;43129;52.628;10.098;2023-08-30T07:17:02;17.40;99.90
57282;DHT22;43129;52.628;10.098;2023-08-30T07:19:27;17.60;99.90
57282;DHT22;43129;52.628;10.098;2023-08-30T07:21:53;18.00;99.90
57282;DHT22;43129;52.628;10.098;2023-08-30T07:24:19;18.30;99.90
57282;DHT22;43129;52.628;10.098;2023-08-30T07:26:44;18.50;99.90
57282;DHT22;43129;52.628;10.098;2023-08-30T07:29:12;18.50;99.90
57282;DHT22;43129;52.628;10.098;2023-08-30T07:31:42;18.80;99.90
57282;DHT22;43129;52.628;10.098;2023-08-30T07:34:10;18.90;99.90
57282;DHT22;43129;52.628;10.098;2023-08-30T07:36:37;19.40;99.90
57282;DHT22;43129;52.628;10.098;2023-08-30T07:39:02;19.50;99.90
57282;DHT22;43129;52.628;10.098;2023-08-30T07:41:34;19.40;99.90
57282;DHT22;43129;52.628;10.098;2023-08-30T07:43:59;19.30;99.90
57282;DHT22;43129;52.628;10.098;2023-08-30T07:46:25;19.70;99.90
57282;DHT22;43129;52.628;10.098;2023-08-30T07:48:53;19.30;99.90
57282;DHT22;43129;52.628;10.098;2023-08-30T07:51:21;19.30;99.90
57282;DHT22;43129;52.628;10.098;2023-08-30T07:53:47;19.60;99.90
57282;DHT22;43129;52.628;10.098;2023-08-30T07:56:15;19.60;99.90
57282;DHT22;43129;52.628;10.098;2023-08-30T07:58:43;19.80;99.90
57282;DHT22;43129;52.628;10.098;2023-08-30T08:01:11;19.80;99.90
57282;DHT22;43129;52.628;10.098;2023-08-30T08:03:37;20.20;99.90
57282;DHT22;43129;52.628;10.098;2023-08-30T08:06:06;20.10;99.90
57282;DHT22;43129;52.628;10.098;2023-08-30T08:08:32;20.30;99.90
57282;DHT22;43129;52.628;10.098;2023-08-30T08:10:59;20.40;99.90
57282;DHT22;43129;52.628;10.098;2023-08-30T08:13:27;20.00;99.90
57282;DHT22;43129;52.628;10.098;2023-08-30T08:15:56;20.00;99.90
57282;DHT22;43129;52.628;10.098;2023-08-30T08:18:24;19.50;99.90
57282;DHT22;43129;52.628;10.098;2023-08-30T08:20:57;19.30;99.90
57282;DHT22;43129;52.628;10.098;2023-08-30T08:23:22;19.10;99.90
57282;DHT22;43129;52.628;10.098;2023-08-30T08:25:48;19.20;99.90
57282;DHT22;43129;52.628;10.098;2023-08-30T08:28:13;19.10;99.90
57282;DHT22;43129;52.628;10.098;2023-08-30T08:30:39;18.80;99.90
57282;DHT22;43129;52.628;10.098;2023-08-30T08:33:05;18.90;99.90
57282;DHT22;43129;52.628;10.098;2023-08-30T08:35:30;19.40;99.90
57282;DHT22;43129;52.628;10.098;2023-08-30T08:37:56;19.90;99.90
57282;DHT22;43129;52.628;10.098;2023-08-30T08:40:21;20.10;99.90
57282;DHT22;43129;52.628;10.098;2023-08-30T08:42:51;20.30;99.90
57282;DHT22;43129;52.628;10.098;2023-08-30T08:45:18;20.70;99.90
57282;DHT22;43129;52.628;10.098;2023-08-30T08:47:48;20.30;99.90
57282;DHT22;43129;52.628;10.098;2023-08-30T08:50:14;20.90;99.90
57282;DHT22;43129;52.628;10.098;2023-08-30T08:52:40;20.90;99.90
57282;DHT22;43129;52.628;10.098;2023-08-30T08:55:06;21.20;99.90
57282;DHT22;43129;52.628;10.098;2023-08-30T08:57:31;21.60;99.60
57282;DHT22;43129;52.628;10.098;2023-08-30T08:59:57;21.10;99.90
57282;DHT22;43129;52.628;10.098;2023-08-30T09:02:23;21.20;99.90
57282;DHT22;43129;52.628;10.098;2023-08-30T09:04:52;21.40;99.90
57282;DHT22;43129;52.628;10.098;2023-08-30T09:07:18;22.00;99.20
57282;DHT22;43129;52.628;10.098;2023-08-30T09:09:45;21.90;99.10
57282;DHT22;43129;52.628;10.098;2023-08-30T09:12:12;22.10;99.20
57282;DHT22;43129;52.628;10.098;2023-08-30T09:14:37;22.20;98.60
57282;DHT22;43129;52.628;10.098;2023-08-30T09:17:03;22.10;98.50
57282;DHT22;43129;52.628;10.098;2023-08-30T09:19:33;21.80;97.90
57282;DHT22;43129;52.628;10.098;2023-08-30T09:22:01;22.20;98.20
57282;DHT22;43129;52.628;10.098;2023-08-30T09:24:37;22.00;98.00
57282;DHT22;43129;52.628;10.098;2023-08-30T09:27:03;22.70;97.40
57282;DHT22;43129;52.628;10.098;2023-08-30T09:29:29;22.30;97.40
57282;DHT22;43129;52.628;10.098;2023-08-30T09:31:58;21.60;98.00
57282;DHT22;43129;52.628;10.098;2023-08-30T09:34:26;22.20;97.90
57282;DHT22;43129;52.628;10.098;2023-08-30T09:36:54;23.10;96.20
57282;DHT22;43129;52.628;10.098;2023-08-30T09:39:20;23.90;94.70
57282;DHT22;43129;52.628;10.098;2023-08-30T09:41:49;23.60;94.50
57282;DHT22;43129;52.628;10.098;2023-08-30T09:44:20;22.60;94.00
57282;DHT22;43129;52.628;10.098;2023-08-30T09:46:48;22.70;94.60
57282;DHT22;43129;52.628;10.098;2023-08-30T09:49:14;22.40;94.50
57282;DHT22;43129;52.628;10.098;2023-08-30T09:51:42;23.00;93.90
57282;DHT22;43129;52.628;10.098;2023-08-30T09:54:16;22.80;93.00
57282;DHT22;43129;52.628;10.098;2023-08-30T09:56:43;22.90;93.20
57282;DHT22;43129;52.628;10.098;2023-08-30T09:59:13;22.70;93.60
57282;DHT22;43129;52.628;10.098;2023-08-30T10:01:40;22.80;93.00
57282;DHT22;43129;52.628;10.098;2023-08-30T10:04:07;22.10;94.10
57282;DHT22;43129;52.628;10.098;2023-08-30T10:06:41;22.80;92.60
57282;DHT22;43129;52.628;10.098;2023-08-30T10:09:08;22.70;93.00
57282;DHT22;43129;52.628;10.098;2023-08-30T10:11:37;23.10;93.50
57282;DHT22;43129;52.628;10.098;2023-08-30T10:14:06;22.90;93.40
57282;DHT22;43129;52.628;10.098;2023-08-30T10:16:48;23.10;93.10
57282;DHT22;43129;52.628;10.098;2023-08-30T10:19:17;24.20;91.40
57282;DHT22;43129;52.628;10.098;2023-08-30T10:21:50;23.70;90.10
57282;DHT22;43129;52.628;10.098;2023-08-30T10:24:20;23.70;89.60
57282;DHT22;43129;52.628;10.098;2023-08-30T10:26:48;23.60;90.40
57282;DHT22;43129;52.628;10.098;2023-08-30T10:29:17;24.30;87.00
57282;DHT22;43129;52.628;10.098;2023-08-30T10:31:45;23.30;90.00
57282;DHT22;43129;52.628;10.098;2023-08-30T10:34:15;22.60;91.40
57282;DHT22;43129;52.628;10.098;2023-08-30T10:36:56;21.80;93.20
57282;DHT22;43129;52.628;10.098;2023-08-30T10:39:36;21.50;94.00
57282;DHT22;43129;52.628;10.098;2023-08-30T10:44:33;22.00;93.00
57282;DHT22;43129;52.628;10.098;2023-08-30T10:47:02;23.20;90.50
57282;DHT22;43129;52.628;10.098;2023-08-30T10:49:29;23.40;89.50
57282;DHT22;43129;52.628;10.098;2023-08-30T10:52:04;23.50;87.90
57282;DHT22;43129;52.628;10.098;2023-08-30T10:54:37;23.00;88.50
57282;DHT22;43129;52.628;10.098;2023-08-30T10:57:12;23.70;84.10
57282;DHT22;43129;52.628;10.098;2023-08-30T10:59:37;23.70;85.40
57282;DHT22;43129;52.628;10.098;2023-08-30T11:02:06;23.50;87.70
57282;DHT22;43129;52.628;10.098;2023-08-30T11:04:31;22.80;90.10
57282;DHT22;43129;52.628;10.098;2023-08-30T11:06:57;22.20;91.10
57282;DHT22;43129;52.628;10.098;2023-08-30T11:09:24;21.30;92.60
57282;DHT22;43129;52.628;10.098;2023-08-30T11:11:51;21.10;94.20
57282;DHT22;43129;52.628;10.098;2023-08-30T11:14:17;20.80;95.80
57282;DHT22;43129;52.628;10.098;2023-08-30T11:16:44;21.40;95.30
57282;DHT22;43129;52.628;10.098;2023-08-30T11:19:10;21.90;94.40
57282;DHT22;43129;52.628;10.098;2023-08-30T11:21:38;22.20;93.60
57282;DHT22;43129;52.628;10.098;2023-08-30T11:24:07;22.60;92.50
57282;DHT22;43129;52.628;10.098;2023-08-30T11:26:33;21.90;93.00
57282;DHT22;43129;52.628;10.098;2023-08-30T11:29:08;21.40;94.60
57282;DHT22;43129;52.628;10.098;2023-08-30T11:31:34;21.40;94.20
57282;DHT22;43129;52.628;10.098;2023-08-30T11:34:00;21.20;95.10
57282;DHT22;43129;52.628;10.098;2023-08-30T11:36:30;21.50;94.00
57282;DHT22;43129;52.628;10.098;2023-08-30T11:39:01;21.60;93.30
57282;DHT22;43129;52.628;10.098;2023-08-30T11:41:26;22.40;92.80
57282;DHT22;43129;52.628;10.098;2023-08-30T11:43:53;22.90;91.40
57282;DHT22;43129;52.628;10.098;2023-08-30T11:46:20;23.20;90.60
57282;DHT22;43129;52.628;10.098;2023-08-30T11:48:50;23.70;87.20
57282;DHT22;43129;52.628;10.098;2023-08-30T11:51:18;24.80;83.50
57282;DHT22;43129;52.628;10.098;2023-08-30T11:53:47;25.30;79.10
57282;DHT22;43129;52.628;10.098;2023-08-30T11:56:13;26.00;71.10
57282;DHT22;43129;52.628;10.098;2023-08-30T11:58:39;25.40;68.90
57282;DHT22;43129;52.628;10.098;2023-08-30T12:01:05;25.40;71.20
57282;DHT22;43129;52.628;10.098;2023-08-30T12:03:33;26.00;69.20
57282;DHT22;43129;52.628;10.098;2023-08-30T12:05:59;25.40;70.10
57282;DHT22;43129;52.628;10.098;2023-08-30T12:08:29;25.90;67.10
57282;DHT22;43129;52.628;10.098;2023-08-30T12:10:58;25.50;67.30
57282;DHT22;43129;52.628;10.098;2023-08-30T12:13:28;25.20;67.10
57282;DHT22;43129;52.628;10.098;2023-08-30T12:15:56;25.40;69.50
57282;DHT22;43129;52.628;10.098;2023-08-30T12:18:26;25.20;68.40
57282;DHT22;43129;52.628;10.098;2023-08-30T12:21:01;26.40;61.00
57282;DHT22;43129;52.628;10.098;2023-08-30T12:23:29;25.10;62.80
57282;DHT22;43129;52.628;10.098;2023-08-30T12:26:07;24.80;67.00
57282;DHT22;43129;52.628;10.098;2023-08-30T12:28:34;24.40;67.20
57282;DHT22;43129;52.628;10.098;2023-08-30T12:31:05;23.70;70.20
57282;DHT22;43129;52.628;10.098;2023-08-30T12:33:34;24.60;66.30
57282;DHT22;43129;52.628;10.098;2023-08-30T12:36:00;24.80;63.60
57282;DHT22;43129;52.628;10.098;2023-08-30T12:38:26;24.80;64.90
57282;DHT22;43129;52.628;10.098;2023-08-30T12:40:53;25.30;62.20
57282;DHT22;43129;52.628;10.098;2023-08-30T12:43:20;25.40;64.20
57282;DHT22;43129;52.628;10.098;2023-08-30T12:45:49;25.70;60.90
57282;DHT22;43129;52.628;10.098;2023-08-30T12:48:18;25.30;60.40
57282;DHT22;43129;52.628;10.098;2023-08-30T12:50:45;24.10;63.30
57282;DHT22;43129;52.628;10.098;2023-08-30T12:53:11;24.40;64.50
57282;DHT22;43129;52.628;10.098;2023-08-30T12:55:37;25.40;61.50
57282;DHT22;43129;52.628;10.098;2023-08-30T12:58:06;26.00;58.30
57282;DHT22;43129;52.628;10.098;2023-08-30T13:00:32;27.10;56.60
57282;DHT22;43129;52.628;10.098;2023-08-30T13:02:58;26.30;55.60
57282;DHT22;43129;52.628;10.098;2023-08-30T13:05:28;26.40;57.60
57282;DHT22;43129;52.628;10.098;2023-08-30T13:07:55;27.50;55.00
57282;DHT22;43129;52.628;10.098;2023-08-30T13:10:26;27.10;52.70
57282;DHT22;43129;52.628;10.098;2023-08-30T13:12:52;26.20;56.50
57282;DHT22;43129;52.628;10.098;2023-08-30T13:15:17;26.90;50.80
57282;DHT22;43129;52.628;10.098;2023-08-30T13:17:43;27.00;50.40
57282;DHT22;43129;52.628;10.098;2023-08-30T13:20:09;27.50;51.40
57282;DHT22;43129;52.628;10.098;2023-08-30T13:22:38;28.00;51.30
57282;DHT22;43129;52.628;10.098;2023-08-30T13:25:09;27.50;50.40
57282;DHT22;43129;52.628;10.098;2023-08-30T13:27:35;27.30;51.60
57282;DHT22;43129;52.628;10.098;2023-08-30T13:30:00;26.90;52.70
57282;DHT22;43129;52.628;10.098;2023-08-30T13:32:26;27.20;51.90
57282;DHT22;43129;52.628;10.098;2023-08-30T13:34:52;28.40;51.50
57282;DHT22;43129;52.628;10.098;2023-08-30T13:37:18;28.50;49.80
57282;DHT22;43129;52.628;10.098;2023-08-30T13:39:44;27.10;50.20
57282;DHT22;43129;52.628;10.098;2023-08-30T13:42:09;27.60;51.10
57282;DHT22;43129;52.628;10.098;2023-08-30T13:44:40;27.10;51.70
57282;DHT22;43129;52.628;10.098;2023-08-30T13:47:10;26.80;53.30
57282;DHT22;43129;52.628;10.098;2023-08-30T13:49:36;25.80;55.10
57282;DHT22;43129;52.628;10.098;2023-08-30T13:52:02;24.20;58.10
57282;DHT22;43129;52.628;10.098;2023-08-30T13:54:28;23.30;62.90
57282;DHT22;43129;52.628;10.098;2023-08-30T13:56:56;23.60;62.70
57282;DHT22;43129;52.628;10.098;2023-08-30T13:59:22;24.10;62.00
57282;DHT22;43129;52.628;10.098;2023-08-30T14:01:48;23.60;62.30
57282;DHT22;43129;52.628;10.098;2023-08-30T14:04:13;23.70;64.60
57282;DHT22;43129;52.628;10.098;2023-08-30T14:06:42;22.90;67.00
57282;DHT22;43129;52.628;10.098;2023-08-30T14:09:07;22.70;68.60
57282;DHT22;43129;52.628;10.098;2023-08-30T14:11:35;22.30;70.60
57282;DHT22;43129;52.628;10.098;2023-08-30T14:14:03;21.70;72.20
57282;DHT22;43129;52.628;10.098;2023-08-30T14:16:31;21.60;73.60
57282;DHT22;43129;52.628;10.098;2023-08-30T14:18:59;21.40;74.40
57282;DHT22;43129;52.628;10.098;2023-08-30T14:21:30;21.30;75.10
57282;DHT22;43129;52.628;10.098;2023-08-30T14:23:58;21.10;76.30
57282;DHT22;43129;52.628;10.098;2023-08-30T14:26:27;20.80;77.40
57282;DHT22;43129;52.628;10.098;2023-08-30T14:28:53;20.70;78.40
57282;DHT22;43129;52.628;10.098;2023-08-30T14:31:18;20.60;80.20
57282;DHT22;43129;52.628;10.098;2023-08-30T14:33:44;20.50;81.90
57282;DHT22;43129;52.628;10.098;2023-08-30T14:36:13;20.40;83.40
57282;DHT22;43129;52.628;10.098;2023-08-30T14:38:41;20.20;85.00
57282;DHT22;43129;52.628;10.098;2023-08-30T14:41:07;20.20;86.40
57282;DHT22;43129;52.628;10.098;2023-08-30T14:43:35;20.10;87.60
57282;DHT22;43129;52.628;10.098;2023-08-30T14:46:05;20.00;90.20
57282;DHT22;43129;52.628;10.098;2023-08-30T14:48:36;20.00;93.50
57282;DHT22;43129;52.628;10.098;2023-08-30T14:51:06;19.70;98.40
57282;DHT22;43129;52.628;10.098;2023-08-30T14:53:35;19.50;99.90
57282;DHT22;43129;52.628;10.098;2023-08-30T14:56:02;19.30;99.90
57282;DHT22;43129;52.628;10.098;2023-08-30T14:58:32;19.20;99.90
57282;DHT22;43129;52.628;10.098;2023-08-30T15:00:58;19.10;99.90
57282;DHT22;43129;52.628;10.098;2023-08-30T15:03:24;19.10;99.90
57282;DHT22;43129;52.628;10.098;2023-08-30T15:05:55;19.10;99.90
57282;DHT22;43129;52.628;10.098;2023-08-30T15:08:22;19.10;99.90
57282;DHT22;43129;52.628;10.098;2023-08-30T15:10:50;19.20;99.90
57282;DHT22;43129;52.628;10.098;2023-08-30T15:13:21;19.30;99.90
57282;DHT22;43129;52.628;10.098;2023-08-30T15:15:47;19.30;99.90
57282;DHT22;43129;52.628;10.098;2023-08-30T15:18:13;19.30;99.90
57282;DHT22;43129;52.628;10.098;2023-08-30T15:20:38;19.20;99.90
57282;DHT22;43129;52.628;10.098;2023-08-30T15:23:04;19.10;99.90
57282;DHT22;43129;52.628;10.098;2023-08-30T15:25:32;19.00;99.90
57282;DHT22;43129;52.628;10.098;2023-08-30T15:27:58;18.90;99.90
57282;DHT22;43129;52.628;10.098;2023-08-30T15:30:23;18.90;99.90